Terminal Aerodrome Forecast
Issued by NWS Springfield, MO

Home | Current Version | Previous Version | Text Only | Print | Product List | Glossary On
Versions: 1 2 3 4 5 6 7 8 9 10 11 12 13 14 15 16
561
FTUS43 KSGF 061501 AAF
TAFSGF
TAF AMD
KSGF 061501Z 0615/0712 34015KT 5SM BR OVC006
     FM061700 34011G19KT P6SM SCT110
     FM062300 34007KT P6SM SCT200
     FM070900 04004KT P6SM SCT140
     FM071100 07004KT P6SM BKN110=

USA.gov is the U.S. government's official web portal to all federal, state and local government web resources and services.